Time;durP1;ratioP1;P1;durP2;ratioP2;P2;SDS_P1;SDS_P2;PMS_P1;PMS_P2;Temp;Humidity;BMP_temperature;BMP_pressure;BME280_temperature;BME280_humidity;BME280_pressure;Samples;Min_cycle;Max_cycle;Signal;HPM_P1;HPM_P2
2021/09/23 00:00:24;;;;;;;23.23;20.77;;;11.50;99.90;;;;;;5053539;28;20479;-57
2021/09/23 00:03:09;;;;;;;22.23;17.60;;;11.50;99.90;;;;;;5053556;28;20451;-59
2021/09/23 00:05:40;;;;;;;28.23;18.00;;;11.50;99.90;;;;;;5053448;28;20464;-52
2021/09/23 00:08:08;;;;;;;28.00;22.60;;;11.50;99.90;;;;;;5053170;28;20449;-56
2021/09/23 00:10:38;;;;;;;22.57;17.77;;;11.50;99.90;;;;;;5053310;28;20476;-52
2021/09/23 00:13:06;;;;;;;22.80;19.03;;;11.50;99.90;;;;;;5053187;28;20444;-55
2021/09/23 00:15:34;;;;;;;27.00;20.50;;;11.50;99.90;;;;;;5053198;28;20467;-53
2021/09/23 00:18:05;;;;;;;20.97;16.57;;;11.50;99.90;;;;;;5052844;28;20455;-59
2021/09/23 00:20:35;;;;;;;23.60;18.40;;;11.50;99.90;;;;;;5053226;28;20468;-54
2021/09/23 00:23:04;;;;;;;37.93;21.60;;;11.50;99.90;;;;;;5052243;28;20447;-56
2021/09/23 00:25:31;;;;;;;21.27;17.53;;;11.50;99.90;;;;;;5053028;28;20476;-61
2021/09/23 00:27:58;;;;;;;23.57;17.97;;;11.50;99.90;;;;;;5052865;28;20448;-60
2021/09/23 00:30:27;;;;;;;27.37;19.70;;;11.50;99.90;;;;;;5052844;28;20482;-61
2021/09/23 00:32:54;;;;;;;22.70;16.77;;;11.50;99.90;;;;;;5053039;28;20459;-61
2021/09/23 00:35:21;;;;;;;19.07;16.60;;;11.50;99.90;;;;;;5052963;28;20819;-61
2021/09/23 00:37:48;;;;;;;23.20;17.57;;;11.50;99.90;;;;;;5052478;28;20471;-61
2021/09/23 00:40:17;;;;;;;22.50;17.30;;;11.40;99.90;;;;;;5052903;28;20447;-61
2021/09/23 00:42:47;;;;;;;20.20;16.80;;;11.40;99.90;;;;;;5052820;28;20494;-61
2021/09/23 00:45:15;;;;;;;22.67;17.33;;;11.40;99.90;;;;;;5052717;28;20518;-61
2021/09/23 00:47:42;;;;;;;23.13;16.17;;;11.40;99.90;;;;;;5052479;28;20451;-60
2021/09/23 00:50:10;;;;;;;17.87;14.83;;;11.30;99.90;;;;;;5052493;28;20486;-61
2021/09/23 00:52:38;;;;;;;20.40;17.13;;;11.30;99.90;;;;;;5052571;28;20448;-59
2021/09/23 00:55:06;;;;;;;18.90;15.90;;;11.20;99.90;;;;;;5052088;28;20464;-60
2021/09/23 00:57:34;;;;;;;18.77;16.70;;;11.20;99.90;;;;;;5052539;28;20807;-61
2021/09/23 01:00:01;;;;;;;22.60;16.47;;;11.20;99.90;;;;;;5052287;28;20436;-60
2021/09/23 01:02:27;;;;;;;24.33;18.07;;;11.20;99.90;;;;;;5052416;28;20444;-58
2021/09/23 01:04:54;;;;;;;29.17;19.53;;;11.20;99.90;;;;;;5052199;28;20468;-61
2021/09/23 01:07:22;;;;;;;22.63;17.80;;;11.10;99.90;;;;;;5052378;28;20459;-61
2021/09/23 01:09:51;;;;;;;26.07;18.67;;;11.10;99.90;;;;;;5052058;28;20511;-61
2021/09/23 01:12:19;;;;;;;24.83;19.10;;;11.10;99.90;;;;;;5052360;28;20440;-61
2021/09/23 01:14:48;;;;;;;23.97;19.10;;;11.10;99.90;;;;;;5051893;28;20472;-61
2021/09/23 01:17:15;;;;;;;20.87;17.00;;;11.10;99.90;;;;;;5052289;28;20452;-61
2021/09/23 01:19:44;;;;;;;23.00;17.63;;;11.10;99.90;;;;;;5051921;28;20440;-61
2021/09/23 01:22:12;;;;;;;29.10;20.13;;;11.10;99.90;;;;;;5052052;28;20451;-61
2021/09/23 01:24:40;;;;;;;23.27;19.10;;;11.10;99.90;;;;;;5051660;28;20484;-61
2021/09/23 01:27:07;;;;;;;22.00;17.87;;;11.10;99.90;;;;;;5051950;28;20960;-61
2021/09/23 01:29:35;;;;;;;28.13;19.20;;;11.00;99.90;;;;;;5051858;28;20516;-61
2021/09/23 01:32:04;;;;;;;21.80;18.87;;;11.00;99.90;;;;;;5051591;28;20453;-60
2021/09/23 01:34:31;;;;;;;25.60;21.30;;;11.00;99.90;;;;;;5051541;28;20497;-61
2021/09/23 01:36:58;;;;;;;20.50;17.37;;;11.00;99.90;;;;;;5051876;28;20472;-61
2021/09/23 01:39:28;;;;;;;31.10;18.80;;;11.00;99.90;;;;;;5051695;28;20440;-60
2021/09/23 01:41:55;;;;;;;28.30;20.77;;;11.00;99.90;;;;;;5051573;28;20454;-61
2021/09/23 01:44:22;;;;;;;25.87;17.00;;;11.00;99.90;;;;;;5051662;28;20467;-60
2021/09/23 01:46:49;;;;;;;24.40;16.30;;;10.90;99.90;;;;;;5051677;28;20806;-60
2021/09/23 01:49:16;;;;;;;35.47;17.43;;;10.90;99.90;;;;;;5051437;28;20437;-60
2021/09/23 01:51:43;;;;;;;23.87;18.83;;;10.90;99.90;;;;;;5051264;28;21027;-61
2021/09/23 01:54:10;;;;;;;21.83;18.27;;;10.90;99.90;;;;;;5051496;28;20467;-59
2021/09/23 01:56:38;;;;;;;16.90;15.20;;;10.90;99.90;;;;;;5051580;28;20444;-60
2021/09/23 01:59:05;;;;;;;22.57;16.17;;;10.90;99.90;;;;;;5051312;28;20463;-60
2021/09/23 02:01:32;;;;;;;24.17;18.27;;;10.90;99.90;;;;;;5051132;28;20489;-61
2021/09/23 02:03:58;;;;;;;24.77;17.33;;;10.90;99.90;;;;;;5051377;28;20451;-60
2021/09/23 02:06:25;;;;;;;23.70;16.50;;;10.90;99.90;;;;;;5051453;28;20452;-58
2021/09/23 02:08:52;;;;;;;21.97;18.40;;;10.80;99.90;;;;;;5051264;28;20448;-59
2021/09/23 02:11:19;;;;;;;24.20;17.60;;;10.80;99.90;;;;;;5051206;28;20645;-61
2021/09/23 02:13:47;;;;;;;27.23;17.50;;;10.80;99.90;;;;;;5051343;28;20451;-61
2021/09/23 02:16:14;;;;;;;19.23;16.97;;;10.80;99.90;;;;;;5051398;28;20447;-59
2021/09/23 02:18:40;;;;;;;23.53;17.00;;;10.70;99.90;;;;;;5051013;28;20447;-60
2021/09/23 02:21:07;;;;;;;20.00;16.37;;;10.70;99.90;;;;;;5050886;28;20437;-59
2021/09/23 02:23:33;;;;;;;21.57;16.53;;;10.70;99.90;;;;;;5051278;28;20441;-60
2021/09/23 02:26:00;;;;;;;26.70;17.70;;;10.60;99.90;;;;;;5051723;28;20997;-58
2021/09/23 02:28:27;;;;;;;23.83;18.10;;;10.60;99.90;;;;;;5051073;28;20956;-57
2021/09/23 02:30:55;;;;;;;27.30;18.13;;;10.60;99.90;;;;;;5050794;28;20476;-61
2021/09/23 02:33:22;;;;;;;29.07;17.87;;;10.60;99.90;;;;;;5051180;28;20543;-60
2021/09/23 02:35:49;;;;;;;26.10;19.40;;;10.60;99.90;;;;;;5051013;28;20468;-58
2021/09/23 02:38:16;;;;;;;28.17;21.40;;;10.60;99.90;;;;;;5050727;28;20447;-58
2021/09/23 02:40:43;;;;;;;24.43;20.10;;;10.50;99.90;;;;;;5051113;28;20470;-59
2021/09/23 02:43:09;;;;;;;26.60;21.10;;;10.50;99.90;;;;;;5051160;28;20450;-58
2021/09/23 02:45:36;;;;;;;34.03;21.37;;;10.50;99.90;;;;;;5052124;28;20965;-58
2021/09/23 02:48:04;;;;;;;24.80;20.77;;;10.40;99.90;;;;;;5054807;28;20448;-59
2021/09/23 02:50:31;;;;;;;20.37;17.33;;;10.40;99.90;;;;;;5054467;28;20840;-59
2021/09/23 02:52:58;;;;;;;28.27;22.70;;;10.40;99.90;;;;;;5054926;28;20451;-59
2021/09/23 02:55:25;;;;;;;30.50;24.27;;;10.40;99.90;;;;;;5054776;28;20464;-59
2021/09/23 02:57:52;;;;;;;26.97;22.87;;;10.40;99.90;;;;;;5054622;28;20817;-57
2021/09/23 03:00:19;;;;;;;32.70;24.30;;;10.40;99.90;;;;;;5054784;28;20866;-56
2021/09/23 03:02:46;;;;;;;29.80;22.20;;;10.30;99.90;;;;;;5054770;28;20459;-58
2021/09/23 03:05:14;;;;;;;25.47;21.70;;;10.30;99.90;;;;;;5054766;28;20460;-58
2021/09/23 03:07:40;;;;;;;30.97;24.67;;;10.30;99.90;;;;;;5054265;28;20451;-56
2021/09/23 03:10:08;;;;;;;34.03;27.23;;;10.20;99.90;;;;;;5054257;28;20448;-58
2021/09/23 03:12:34;;;;;;;31.80;25.03;;;10.20;99.90;;;;;;5054569;28;20451;-58
2021/09/23 03:15:01;;;;;;;34.57;25.53;;;10.20;99.90;;;;;;5054394;28;20471;-57
2021/09/23 03:17:28;;;;;;;27.50;21.47;;;10.20;99.90;;;;;;5054178;28;20451;-60
2021/09/23 03:19:54;;;;;;;27.93;21.97;;;10.20;99.90;;;;;;5054215;28;20448;-55
2021/09/23 03:22:22;;;;;;;35.33;25.73;;;10.10;99.90;;;;;;5054399;28;20451;-59
2021/09/23 03:24:49;;;;;;;36.77;25.43;;;10.10;99.90;;;;;;5054051;28;20476;-58
2021/09/23 03:27:16;;;;;;;35.17;25.70;;;10.10;99.90;;;;;;5054064;28;20444;-57
2021/09/23 03:29:44;;;;;;;35.07;24.90;;;10.10;99.90;;;;;;5054065;28;20456;-59
2021/09/23 03:32:11;;;;;;;25.70;22.37;;;10.10;99.90;;;;;;5053854;28;20468;-60
2021/09/23 03:34:38;;;;;;;30.57;23.43;;;10.20;99.90;;;;;;5054274;28;20537;-60
2021/09/23 03:37:05;;;;;;;32.60;23.37;;;10.10;99.90;;;;;;5054082;28;20445;-60
2021/09/23 03:39:33;;;;;;;35.10;24.30;;;10.10;99.90;;;;;;5053846;28;20448;-58
2021/09/23 03:41:59;;;;;;;35.47;25.13;;;10.10;99.90;;;;;;5053753;28;20881;-60
2021/09/23 03:44:26;;;;;;;35.40;25.53;;;10.10;99.90;;;;;;5053626;28;20474;-59
2021/09/23 03:46:55;;;;;;;30.17;22.87;;;10.10;99.90;;;;;;5053874;28;20813;-61
2021/09/23 03:49:24;;;;;;;37.83;25.87;;;10.10;99.90;;;;;;5053620;28;20454;-60
2021/09/23 03:51:51;;;;;;;27.70;19.93;;;10.10;99.90;;;;;;5053562;28;20512;-59
2021/09/23 03:54:17;;;;;;;32.30;24.30;;;10.00;99.90;;;;;;5033781;28;20468;-60
2021/09/23 03:56:46;;;;;;;33.37;24.30;;;10.10;99.90;;;;;;5033840;28;20445;-58
2021/09/23 03:59:12;;;;;;;29.23;21.80;;;10.10;99.90;;;;;;5033550;28;20433;-59
2021/09/23 04:01:39;;;;;;;30.80;23.80;;;10.00;99.90;;;;;;5033705;28;20437;-60
2021/09/23 04:04:06;;;;;;;34.50;26.10;;;10.00;99.90;;;;;;5052077;28;20464;-58
2021/09/23 04:06:38;;;;;;;30.50;23.47;;;10.00;99.90;;;;;;5053503;28;20444;-60
2021/09/23 04:09:05;;;;;;;29.93;25.07;;;10.00;99.90;;;;;;5053277;28;20531;-60
2021/09/23 04:11:32;;;;;;;37.93;25.73;;;10.00;99.90;;;;;;5053359;28;20487;-61
2021/09/23 04:14:00;;;;;;;32.13;25.00;;;10.00;99.90;;;;;;5053082;28;20440;-59
2021/09/23 04:16:26;;;;;;;32.40;25.10;;;10.10;99.90;;;;;;5053230;28;20451;-60
2021/09/23 04:18:53;;;;;;;30.60;24.20;;;10.10;99.90;;;;;;5053153;28;20813;-60
2021/09/23 04:21:20;;;;;;;31.23;23.77;;;10.10;99.90;;;;;;5052989;28;20440;-60
2021/09/23 04:23:47;;;;;;;31.10;24.57;;;10.00;99.90;;;;;;5053089;28;20938;-58
2021/09/23 04:26:14;;;;;;;31.30;25.03;;;10.10;99.90;;;;;;5053243;28;20479;-60
2021/09/23 04:28:40;;;;;;;29.30;23.47;;;10.10;99.90;;;;;;5053014;28;20868;-59
2021/09/23 04:31:09;;;;;;;22.97;18.40;;;10.10;99.90;;;;;;5052718;28;20511;-61
2021/09/23 04:33:35;;;;;;;29.77;23.77;;;10.10;99.90;;;;;;5052946;28;20440;-60
2021/09/23 04:36:03;;;;;;;34.97;23.87;;;10.00;99.90;;;;;;5052919;28;20551;-59
2021/09/23 04:38:30;;;;;;;32.17;23.40;;;10.10;99.90;;;;;;5052501;28;20444;-53
2021/09/23 04:40:56;;;;;;;32.90;23.37;;;10.10;99.90;;;;;;5052889;28;20437;-61
2021/09/23 04:43:23;;;;;;;29.80;22.47;;;10.10;99.90;;;;;;5052497;28;20457;-54
2021/09/23 04:45:50;;;;;;;33.30;23.37;;;10.10;99.90;;;;;;5053311;28;20468;-55
2021/09/23 04:48:18;;;;;;;33.77;23.43;;;10.10;99.90;;;;;;5051891;28;20439;-61
2021/09/23 04:50:45;;;;;;;35.87;24.53;;;10.10;99.90;;;;;;5053166;28;20464;-60
2021/09/23 04:53:11;;;;;;;32.20;23.10;;;10.10;99.90;;;;;;5053070;28;20447;-57
2021/09/23 04:55:38;;;;;;;38.33;24.53;;;10.00;99.90;;;;;;5053178;28;20456;-58
2021/09/23 04:58:05;;;;;;;26.10;22.60;;;10.10;99.90;;;;;;5053018;28;20812;-58
2021/09/23 05:00:31;;;;;;;40.13;25.07;;;10.00;99.90;;;;;;5053141;28;20444;-56
2021/09/23 05:02:58;;;;;;;34.20;22.60;;;10.00;99.90;;;;;;5053002;28;20447;-58
2021/09/23 05:05:27;;;;;;;35.93;23.93;;;10.00;99.90;;;;;;5052953;28;20460;-62
2021/09/23 05:07:54;;;;;;;30.67;23.53;;;10.00;99.90;;;;;;5052531;28;20440;-57
2021/09/23 05:10:20;;;;;;;38.93;23.00;;;10.00;99.90;;;;;;5052574;28;20957;-56
2021/09/23 05:12:47;;;;;;;35.53;23.33;;;10.00;99.90;;;;;;5052815;28;20503;-61
2021/09/23 05:15:14;;;;;;;33.33;24.57;;;10.00;99.90;;;;;;5052326;28;20479;-57
2021/09/23 05:17:41;;;;;;;24.27;18.43;;;10.00;99.90;;;;;;5052968;28;20440;-54
2021/09/23 05:20:09;;;;;;;35.07;21.17;;;10.00;99.90;;;;;;5052713;28;20440;-56
2021/09/23 05:22:38;;;;;;;41.50;25.10;;;10.00;99.90;;;;;;5052526;28;20844;-59
2021/09/23 05:25:05;;;;;;;32.20;22.63;;;10.00;99.90;;;;;;5052330;28;20475;-59
2021/09/23 05:27:32;;;;;;;32.40;23.30;;;10.00;99.90;;;;;;5052565;28;20440;-60
2021/09/23 05:30:00;;;;;;;33.03;22.60;;;10.00;99.90;;;;;;5052309;28;20448;-55
2021/09/23 05:32:26;;;;;;;35.47;22.97;;;9.90;99.90;;;;;;5052532;28;20890;-57
2021/09/23 05:34:53;;;;;;;36.63;23.60;;;9.90;99.90;;;;;;5052417;28;20472;-56
2021/09/23 05:37:20;;;;;;;30.43;23.80;;;10.00;99.90;;;;;;5052232;28;20813;-56
2021/09/23 05:39:48;;;;;;;30.87;24.30;;;10.00;99.90;;;;;;5052481;28;20791;-57
2021/09/23 05:42:15;;;;;;;36.93;25.63;;;10.00;99.90;;;;;;5052399;28;20440;-54
2021/09/23 05:44:41;;;;;;;35.80;25.10;;;10.00;99.90;;;;;;5052200;28;20825;-57
2021/09/23 05:47:08;;;;;;;34.70;24.77;;;10.10;99.90;;;;;;5052302;28;20836;-58
2021/09/23 05:49:36;;;;;;;34.30;23.27;;;10.10;99.90;;;;;;5052181;28;20440;-56
2021/09/23 05:52:03;;;;;;;31.83;23.73;;;10.10;99.90;;;;;;5051844;28;20478;-60
2021/09/23 05:54:30;;;;;;;29.70;19.73;;;10.20;99.90;;;;;;5052200;28;20827;-55
2021/09/23 05:56:58;;;;;;;26.70;19.83;;;10.20;99.90;;;;;;5052185;28;20444;-59
2021/09/23 05:59:26;;;;;;;30.90;23.10;;;10.30;99.90;;;;;;5052220;28;20447;-57
2021/09/23 06:01:54;;;;;;;22.67;17.23;;;10.40;99.90;;;;;;5051967;28;20531;-57
2021/09/23 06:04:22;;;;;;;21.23;17.13;;;10.40;99.90;;;;;;5052048;28;20468;-56
2021/09/23 06:06:48;;;;;;;27.23;22.13;;;10.50;99.90;;;;;;5052062;28;20487;-60
2021/09/23 06:09:15;;;;;;;20.90;17.33;;;10.50;99.90;;;;;;5051775;28;20444;-58
2021/09/23 06:11:42;;;;;;;23.00;18.27;;;10.60;99.90;;;;;;5051992;28;20740;-58
2021/09/23 06:14:10;;;;;;;25.03;17.90;;;10.70;99.90;;;;;;5051968;28;20467;-59
2021/09/23 06:16:37;;;;;;;21.60;16.30;;;10.70;99.90;;;;;;5052033;28;20463;-57
2021/09/23 06:19:04;;;;;;;21.67;16.03;;;10.80;99.90;;;;;;5051969;28;20452;-56
2021/09/23 06:21:31;;;;;;;25.50;17.90;;;10.90;99.90;;;;;;5054786;28;20847;-55
2021/09/23 06:23:57;;;;;;;18.13;16.07;;;11.00;99.90;;;;;;5055944;28;20476;-56
2021/09/23 06:26:24;;;;;;;22.63;16.27;;;11.10;99.90;;;;;;5056101;28;20805;-58
2021/09/23 06:28:51;;;;;;;20.47;17.00;;;11.20;99.90;;;;;;5055948;28;20451;-53
2021/09/23 06:31:19;;;;;;;22.27;17.67;;;11.20;99.90;;;;;;5055947;28;20486;-57
2021/09/23 06:33:45;;;;;;;19.77;15.13;;;11.30;99.90;;;;;;5056223;28;20441;-56
2021/09/23 06:36:12;;;;;;;23.17;17.13;;;11.40;99.90;;;;;;5055607;28;20446;-58
2021/09/23 06:38:39;;;;;;;21.27;16.17;;;11.40;99.90;;;;;;5055977;28;20440;-56
2021/09/23 06:41:05;;;;;;;25.80;17.67;;;11.50;99.90;;;;;;5055734;28;20440;-60
2021/09/23 06:43:32;;;;;;;21.97;17.00;;;11.60;99.90;;;;;;5055317;28;20829;-59
2021/09/23 06:45:59;;;;;;;22.83;17.00;;;11.70;99.90;;;;;;5055484;28;20786;-58
2021/09/23 06:48:27;;;;;;;20.43;15.50;;;11.80;99.90;;;;;;5055656;28;20440;-61
2021/09/23 06:50:54;;;;;;;19.87;16.83;;;11.90;99.90;;;;;;5055339;28;20447;-58
2021/09/23 06:53:20;;;;;;;20.53;16.33;;;12.00;99.90;;;;;;5055438;28;20479;-58
2021/09/23 06:55:47;;;;;;;20.03;15.10;;;12.00;99.90;;;;;;5055204;28;20472;-59
2021/09/23 06:58:14;;;;;;;22.60;14.67;;;12.10;99.90;;;;;;5055474;28;20432;-61
2021/09/23 07:00:41;;;;;;;18.50;15.50;;;12.20;99.90;;;;;;5055578;28;20995;-53
2021/09/23 07:03:08;;;;;;;20.00;15.10;;;12.40;99.90;;;;;;5055333;28;20805;-64
2021/09/23 07:05:36;;;;;;;16.97;13.90;;;12.40;99.90;;;;;;5055225;28;20467;-57
2021/09/23 07:08:03;;;;;;;15.47;13.57;;;12.50;99.90;;;;;;5054982;28;20882;-58
2021/09/23 07:10:29;;;;;;;17.77;14.70;;;12.60;99.90;;;;;;5054869;28;20841;-57
2021/09/23 07:12:56;;;;;;;18.93;16.73;;;12.70;99.90;;;;;;5055097;28;20479;-60
2021/09/23 07:15:23;;;;;;;19.03;14.90;;;12.80;99.90;;;;;;5055027;28;20468;-56
2021/09/23 07:17:50;;;;;;;20.87;14.70;;;12.90;99.90;;;;;;5055149;28;20446;-56
2021/09/23 07:20:16;;;;;;;22.30;16.03;;;13.00;99.90;;;;;;5055090;28;20456;-61
2021/09/23 07:22:44;;;;;;;20.87;16.23;;;13.10;99.90;;;;;;5054548;28;20444;-56
2021/09/23 07:25:12;;;;;;;15.87;13.40;;;13.30;99.90;;;;;;5054506;28;20483;-55
2021/09/23 07:27:39;;;;;;;18.10;13.63;;;13.40;99.90;;;;;;5054918;28;20444;-56
2021/09/23 07:30:07;;;;;;;21.20;14.33;;;13.50;99.90;;;;;;5054554;28;20451;-57
2021/09/23 07:32:33;;;;;;;13.80;11.77;;;13.60;99.90;;;;;;5054390;28;20486;-56
2021/09/23 07:35:00;;;;;;;15.10;11.80;;;13.80;99.90;;;;;;5054833;28;20460;-57
2021/09/23 07:37:27;;;;;;;20.17;11.90;;;13.90;99.90;;;;;;5054770;28;20444;-60
2021/09/23 07:39:55;;;;;;;22.93;12.40;;;14.10;99.90;;;;;;5054421;28;20440;-58
2021/09/23 07:42:22;;;;;;;14.40;11.30;;;14.20;99.90;;;;;;5054383;28;20926;-59
2021/09/23 07:44:49;;;;;;;16.47;12.10;;;14.30;99.90;;;;;;5054555;28;20464;-53
2021/09/23 07:47:15;;;;;;;12.57;11.03;;;14.50;99.90;;;;;;5054453;28;20448;-58
2021/09/23 07:49:42;;;;;;;14.07;12.63;;;14.60;99.90;;;;;;5054565;28;20440;-56
2021/09/23 07:52:09;;;;;;;14.80;12.40;;;14.70;99.90;;;;;;5054421;28;20553;-58
2021/09/23 07:54:36;;;;;;;16.20;12.27;;;14.90;99.90;;;;;;5054296;28;20464;-60
2021/09/23 07:57:04;;;;;;;13.30;10.90;;;15.00;99.90;;;;;;5054417;28;20455;-56
2021/09/23 07:59:31;;;;;;;16.20;10.80;;;15.10;99.90;;;;;;5054327;28;20448;-58
2021/09/23 08:01:58;;;;;;;11.17;10.27;;;15.20;99.90;;;;;;5054296;28;20441;-57
2021/09/23 08:04:24;;;;;;;10.73;9.73;;;15.30;99.90;;;;;;5053899;28;20977;-56
2021/09/23 08:06:51;;;;;;;11.10;10.20;;;15.50;99.90;;;;;;5054292;28;20452;-58
2021/09/23 08:09:18;;;;;;;11.10;10.00;;;15.60;99.90;;;;;;5054060;28;20900;-59
2021/09/23 08:11:46;;;;;;;12.90;11.80;;;15.80;99.90;;;;;;5053956;28;20840;-58
2021/09/23 08:14:14;;;;;;;11.93;10.80;;;15.90;99.90;;;;;;5053664;28;20472;-55
2021/09/23 08:16:43;;;;;;;10.77;10.07;;;16.10;99.90;;;;;;5054095;28;20444;-56
2021/09/23 08:19:09;;;;;;;11.00;10.20;;;16.20;99.90;;;;;;5053881;28;20450;-56
2021/09/23 08:21:37;;;;;;;12.37;11.50;;;16.30;99.90;;;;;;5053815;28;20491;-61
2021/09/23 08:24:07;;;;;;;13.30;12.10;;;16.40;99.90;;;;;;5053779;28;20480;-71
2021/09/23 08:26:34;;;;;;;12.63;11.53;;;16.50;99.90;;;;;;5053183;28;20455;-60
2021/09/23 08:29:01;;;;;;;13.37;12.47;;;16.60;99.90;;;;;;5052924;28;20448;-60
2021/09/23 08:31:29;;;;;;;12.83;11.93;;;16.60;99.90;;;;;;5053041;28;20451;-59
2021/09/23 08:33:56;;;;;;;13.90;13.00;;;16.70;99.90;;;;;;5052861;28;20480;-59
2021/09/23 08:36:23;;;;;;;12.70;11.57;;;16.70;99.90;;;;;;5053008;28;20622;-59
2021/09/23 08:38:50;;;;;;;13.67;12.63;;;16.80;99.90;;;;;;5052592;28;20440;-59
2021/09/23 08:41:17;;;;;;;15.37;14.20;;;16.90;99.90;;;;;;5052951;28;20440;-59
2021/09/23 08:43:44;;;;;;;14.00;12.97;;;17.00;99.90;;;;;;5051985;28;20455;-58
2021/09/23 08:46:11;;;;;;;13.80;12.60;;;17.10;99.90;;;;;;5052702;28;20822;-61
2021/09/23 08:48:39;;;;;;;14.60;13.60;;;17.20;99.90;;;;;;5052616;28;20965;-59
2021/09/23 08:51:06;;;;;;;13.93;12.97;;;17.20;99.90;;;;;;5052708;28;20447;-59
2021/09/23 08:53:33;;;;;;;14.57;13.77;;;17.30;99.90;;;;;;5052491;28;20508;-58
2021/09/23 08:56:00;;;;;;;14.43;13.53;;;17.40;99.90;;;;;;5052520;28;20961;-58
2021/09/23 08:58:27;;;;;;;15.20;14.00;;;17.40;99.90;;;;;;5052401;28;20796;-60
2021/09/23 09:01:03;;;;;;;19.70;14.43;;;17.60;99.90;;;;;;5052436;28;20452;-59
2021/09/23 09:03:32;;;;;;;14.83;13.80;;;17.70;99.90;;;;;;5052451;28;20439;-60
2021/09/23 09:06:05;;;;;;;15.60;14.60;;;17.80;99.90;;;;;;5052382;28;20464;-60
2021/09/23 09:08:33;;;;;;;14.90;13.83;;;17.90;99.90;;;;;;5052132;28;21064;-59
2021/09/23 09:11:01;;;;;;;15.50;14.50;;;17.90;99.90;;;;;;5051989;28;20814;-60
2021/09/23 09:13:33;;;;;;;15.40;14.40;;;18.00;99.90;;;;;;5051658;28;20511;-59
2021/09/23 09:16:07;;;;;;;15.63;14.63;;;18.20;99.90;;;;;;5052003;28;20496;-62
2021/09/23 09:18:33;;;;;;;16.53;15.47;;;18.40;99.90;;;;;;5051901;28;20502;-59
2021/09/23 09:21:03;;;;;;;14.20;13.40;;;18.50;99.90;;;;;;5052168;28;20445;-60
2021/09/23 09:23:38;;;;;;;15.13;14.20;;;18.60;99.90;;;;;;5051039;28;20459;-57
2021/09/23 09:26:05;;;;;;;15.40;14.30;;;18.80;99.90;;;;;;5051696;28;20475;-62
2021/09/23 09:28:31;;;;;;;15.90;14.53;;;18.90;99.90;;;;;;5051346;28;20787;-58
2021/09/23 09:31:01;;;;;;;14.57;13.67;;;18.90;99.90;;;;;;5051616;28;20436;-54
2021/09/23 09:33:36;;;;;;;14.57;13.77;;;19.10;99.90;;;;;;5051908;28;20491;-57
2021/09/23 09:36:06;;;;;;;15.77;14.73;;;19.20;99.90;;;;;;5051934;28;20466;-54
2021/09/23 09:38:33;;;;;;;14.50;13.90;;;19.30;99.90;;;;;;5051932;28;20444;-53
2021/09/23 09:41:02;;;;;;;14.80;14.10;;;19.40;99.90;;;;;;5051941;28;20448;-58
2021/09/23 09:43:31;;;;;;;15.63;14.20;;;19.50;99.90;;;;;;5052003;28;20926;-56
2021/09/23 09:45:58;;;;;;;14.90;14.10;;;19.60;99.90;;;;;;5051864;28;21039;-61
2021/09/23 09:48:29;;;;;;;15.17;14.27;;;19.60;99.90;;;;;;5051907;28;20444;-58
2021/09/23 09:51:01;;;;;;;16.50;15.70;;;19.70;99.90;;;;;;5052237;28;20447;-58
2021/09/23 09:53:29;;;;;;;15.20;14.27;;;19.80;99.90;;;;;;5051959;28;20483;-52
2021/09/23 09:55:56;;;;;;;15.77;14.80;;;20.00;99.90;;;;;;5051655;28;20515;-57
2021/09/23 09:58:24;;;;;;;16.13;15.27;;;20.10;99.90;;;;;;5051873;28;20476;-60
2021/09/23 10:00:51;;;;;;;15.43;14.63;;;20.10;99.90;;;;;;5051975;28;20962;-59
2021/09/23 10:03:19;;;;;;;16.70;15.70;;;20.20;99.90;;;;;;5051718;28;20511;-60
2021/09/23 10:05:47;;;;;;;17.10;15.97;;;20.20;99.90;;;;;;5051687;28;20997;-54
2021/09/23 10:08:17;;;;;;;16.50;15.50;;;20.40;99.80;;;;;;5051723;28;20487;-55
2021/09/23 10:10:45;;;;;;;15.73;15.03;;;20.50;99.90;;;;;;5051771;28;20833;-57
2021/09/23 10:13:14;;;;;;;16.57;15.77;;;20.70;99.40;;;;;;5051922;28;20487;-57
2021/09/23 10:15:41;;;;;;;16.00;15.20;;;20.80;98.50;;;;;;5051424;28;20459;-60
2021/09/23 10:18:08;;;;;;;17.27;15.97;;;21.00;98.30;;;;;;5051350;28;20803;-57
2021/09/23 10:20:35;;;;;;;15.80;14.90;;;20.90;96.40;;;;;;5051325;28;20440;-63
2021/09/23 10:23:01;;;;;;;17.90;16.70;;;21.00;95.70;;;;;;5051317;28;20957;-54
2021/09/23 10:25:32;;;;;;;16.50;15.50;;;20.90;95.40;;;;;;5051242;28;20480;-56
2021/09/23 10:28:03;;;;;;;16.93;15.83;;;21.10;95.40;;;;;;5051462;28;20444;-57
2021/09/23 10:30:33;;;;;;;15.40;14.77;;;21.50;94.70;;;;;;5051486;28;20819;-58
2021/09/23 10:33:01;;;;;;;16.07;15.10;;;21.70;94.90;;;;;;5051493;28;20480;-58
2021/09/23 10:35:31;;;;;;;17.07;15.57;;;21.70;94.00;;;;;;5051258;28;20465;-57
2021/09/23 10:37:59;;;;;;;17.60;16.50;;;22.00;93.60;;;;;;5051307;28;20444;-61
2021/09/23 10:40:27;;;;;;;18.10;17.10;;;22.00;92.20;;;;;;5051019;28;20448;-60
2021/09/23 10:42:58;;;;;;;18.20;17.27;;;22.00;91.50;;;;;;5051167;28;20493;-59
2021/09/23 10:45:28;;;;;;;18.50;17.50;;;22.00;91.00;;;;;;5051100;28;20829;-59
2021/09/23 10:47:58;;;;;;;18.43;17.33;;;22.10;90.00;;;;;;5050837;28;20439;-61
2021/09/23 10:50:27;;;;;;;18.90;17.47;;;22.50;89.40;;;;;;5050907;28;20850;-60
2021/09/23 10:52:55;;;;;;;18.30;16.97;;;22.80;87.20;;;;;;5050895;28;20480;-59
2021/09/23 10:55:24;;;;;;;18.67;17.67;;;23.00;80.00;;;;;;5050884;28;20479;-59
2021/09/23 10:57:51;;;;;;;17.93;17.13;;;23.10;78.90;;;;;;5050666;28;20448;-57
2021/09/23 11:00:22;;;;;;;18.30;17.50;;;23.40;75.70;;;;;;5050817;28;20447;-61
2021/09/23 11:02:51;;;;;;;19.83;18.50;;;23.50;74.60;;;;;;5050754;28;20934;-59
2021/09/23 11:05:20;;;;;;;19.63;18.70;;;23.50;72.10;;;;;;5050744;28;20464;-60
2021/09/23 11:07:48;;;;;;;18.20;17.30;;;23.60;70.60;;;;;;5053681;28;20443;-58
2021/09/23 11:10:17;;;;;;;19.07;18.17;;;23.60;70.50;;;;;;5054616;28;20456;-61
2021/09/23 11:12:48;;;;;;;19.60;18.50;;;23.80;70.40;;;;;;5054442;28;20806;-59
2021/09/23 11:15:16;;;;;;;20.37;19.23;;;24.00;68.90;;;;;;5054528;28;20533;-60
2021/09/23 11:17:43;;;;;;;21.40;20.30;;;24.20;67.60;;;;;;5054325;28;20440;-61
2021/09/23 11:20:14;;;;;;;20.23;18.90;;;24.60;66.60;;;;;;5054391;28;20444;-59
2021/09/23 11:22:42;;;;;;;19.63;18.73;;;25.60;64.00;;;;;;5054348;28;20444;-59
2021/09/23 11:25:12;;;;;;;21.20;19.97;;;25.80;60.50;;;;;;5054236;28;20476;-60
2021/09/23 11:27:40;;;;;;;20.50;19.50;;;26.60;58.40;;;;;;5054287;28;20451;-61
2021/09/23 11:30:10;;;;;;;20.70;19.80;;;28.20;54.40;;;;;;5053978;28;20452;-58
2021/09/23 11:32:50;;;;;;;20.10;19.20;;;28.60;50.00;;;;;;5053974;28;20444;-59
2021/09/23 11:35:20;;;;;;;20.77;19.80;;;29.50;49.20;;;;;;5054016;28;20459;-59
2021/09/23 11:37:48;;;;;;;20.70;19.70;;;30.30;47.00;;;;;;5053952;28;20444;-60
2021/09/23 11:40:20;;;;;;;19.90;19.00;;;30.90;44.00;;;;;;5053963;28;20454;-61
2021/09/23 11:42:47;;;;;;;19.83;18.83;;;30.90;43.00;;;;;;5054103;28;20659;-60
2021/09/23 11:45:16;;;;;;;20.70;19.80;;;32.60;42.30;;;;;;5053852;28;20491;-60
2021/09/23 11:47:48;;;;;;;20.93;20.13;;;33.50;39.90;;;;;;5053800;28;20444;-62
2021/09/23 11:50:41;;;;;;;20.47;19.67;;;33.30;37.60;;;;;;5053877;28;20444;-61
2021/09/23 11:53:11;;;;;;;22.07;20.77;;;33.70;37.20;;;;;;5039311;28;20837;-61
2021/09/23 11:55:41;;;;;;;21.13;19.60;;;32.90;36.90;;;;;;5053717;28;20551;-63
2021/09/23 11:58:10;;;;;;;21.50;20.40;;;33.50;37.30;;;;;;5053686;28;20447;-55
2021/09/23 12:00:39;;;;;;;21.10;20.10;;;33.50;36.60;;;;;;5054165;28;20444;-56
2021/09/23 12:03:07;;;;;;;22.27;21.20;;;34.50;36.00;;;;;;5053929;28;20443;-57
2021/09/23 12:05:35;;;;;;;20.93;20.03;;;34.10;34.50;;;;;;5053758;28;20881;-55
2021/09/23 12:08:09;;;;;;;20.97;20.07;;;33.30;35.10;;;;;;5053751;28;20440;-58
2021/09/23 12:10:48;;;;;;;22.23;21.23;;;34.30;34.60;;;;;;5053777;28;20448;-56
2021/09/23 12:13:20;;;;;;;21.90;20.67;;;33.70;34.30;;;;;;5053924;28;20478;-56
2021/09/23 12:15:53;;;;;;;21.83;20.67;;;33.20;35.30;;;;;;5053892;28;20468;-53
2021/09/23 12:18:23;;;;;;;20.97;20.17;;;34.00;34.60;;;;;;5052184;28;20501;-58
2021/09/23 12:20:51;;;;;;;20.13;19.23;;;34.50;33.60;;;;;;5053428;28;20871;-55
2021/09/23 12:23:24;;;;;;;20.33;19.43;;;33.70;33.80;;;;;;5053512;28;20440;-56
2021/09/23 12:26:05;;;;;;;20.43;19.63;;;34.20;33.70;;;;;;5053035;28;20471;-57
2021/09/23 12:28:33;;;;;;;21.20;19.97;;;34.80;33.10;;;;;;5053180;28;20443;-56
2021/09/23 12:31:00;;;;;;;20.73;19.63;;;36.60;32.90;;;;;;5053459;28;20446;-55